createdAt,value
2018-11-06T00:01:13.893Z,8.46
2018-11-06T00:03:46.872Z,8.74
2018-11-06T00:06:15.008Z,8.80
2018-11-06T00:08:43.163Z,8.88
2018-11-06T00:11:12.008Z,8.95
2018-11-06T00:13:40.944Z,8.79
2018-11-06T00:16:10.037Z,8.70
2018-11-06T00:18:38.163Z,8.61
2018-11-06T00:21:06.344Z,8.63
2018-11-06T00:23:34.543Z,8.77
2018-11-06T00:26:02.654Z,8.86
2018-11-06T00:28:30.780Z,8.81
2018-11-06T00:30:58.879Z,8.75
2018-11-06T00:33:27.006Z,8.82
2018-11-06T00:35:55.071Z,8.77
2018-11-06T00:38:23.195Z,8.75
2018-11-06T00:40:51.304Z,8.82
2018-11-06T00:43:19.368Z,8.87
2018-11-06T00:45:47.521Z,8.79
2018-11-06T00:48:15.702Z,8.70
2018-11-06T00:50:43.812Z,8.75
2018-11-06T00:53:11.891Z,8.77
2018-11-06T00:55:39.964Z,8.81
2018-11-06T00:58:08.072Z,8.77
2018-11-06T01:00:36.149Z,8.79
2018-11-06T01:03:04.244Z,8.82
2018-11-06T01:05:32.339Z,8.78
2018-11-06T01:08:00.448Z,8.66
2018-11-06T01:10:28.551Z,8.51
2018-11-06T01:12:56.651Z,8.42
2018-11-06T01:15:24.755Z,8.43
2018-11-06T01:17:52.876Z,8.61
2018-11-06T01:20:20.988Z,8.62
2018-11-06T01:22:49.072Z,8.60
2018-11-06T01:25:17.268Z,8.53
2018-11-06T01:27:45.365Z,8.59
2018-11-06T01:30:15.805Z,8.60
2018-11-06T01:32:44.595Z,8.60
2018-11-06T01:35:13.522Z,8.71
2018-11-06T01:37:42.501Z,8.70
2018-11-06T01:40:12.628Z,8.66
2018-11-06T01:42:41.092Z,8.61
2018-11-06T01:45:11.164Z,8.69
2018-11-06T01:47:39.543Z,8.62
2018-11-06T01:50:08.829Z,8.58
2018-11-06T01:52:36.990Z,8.56
2018-11-06T01:55:05.421Z,8.62
2018-11-06T01:57:33.541Z,8.66
2018-11-06T02:00:01.705Z,8.53
2018-11-06T02:02:29.857Z,8.44
2018-11-06T02:04:57.989Z,8.50
2018-11-06T02:07:26.117Z,8.44
2018-11-06T02:09:54.249Z,8.41
2018-11-06T02:12:22.387Z,8.42
2018-11-06T02:14:50.551Z,8.37
2018-11-06T02:17:18.709Z,8.38
2018-11-06T02:19:46.874Z,8.23
2018-11-06T02:22:15.013Z,8.26
2018-11-06T02:24:43.193Z,8.34
2018-11-06T02:27:11.325Z,8.25
2018-11-06T02:29:39.450Z,8.19
2018-11-06T02:32:07.587Z,8.12
2018-11-06T02:34:35.718Z,8.03
2018-11-06T02:37:03.863Z,8.05
2018-11-06T02:39:31.995Z,8.01
2018-11-06T02:42:00.100Z,7.92
2018-11-06T02:44:28.209Z,7.88
2018-11-06T02:46:56.332Z,7.87
2018-11-06T02:49:24.478Z,7.82
2018-11-06T02:51:52.632Z,7.82
2018-11-06T02:54:20.795Z,7.79
2018-11-06T02:56:48.946Z,7.82
2018-11-06T02:59:17.107Z,7.73
2018-11-06T03:01:45.229Z,7.74
2018-11-06T03:04:13.428Z,7.73
2018-11-06T03:06:41.577Z,7.66
2018-11-06T03:09:09.730Z,7.73
2018-11-06T03:11:38.137Z,7.63
2018-11-06T03:14:06.267Z,7.56
2018-11-06T03:16:34.369Z,7.57
2018-11-06T03:19:02.498Z,7.61
2018-11-06T03:21:30.614Z,7.55
2018-11-06T03:23:58.768Z,7.50
2018-11-06T03:26:27.612Z,7.55
2018-11-06T03:28:55.784Z,7.52
2018-11-06T03:31:23.932Z,7.62
2018-11-06T03:33:52.056Z,7.66
2018-11-06T03:36:20.197Z,7.52
2018-11-06T03:38:48.379Z,7.58
2018-11-06T03:41:16.505Z,7.63
2018-11-06T03:43:45.052Z,7.67
2018-11-06T03:46:13.179Z,7.82
2018-11-06T03:48:41.289Z,7.84
2018-11-06T03:51:09.439Z,7.95
2018-11-06T03:53:37.568Z,7.95
2018-11-06T03:56:06.312Z,8.00
2018-11-06T03:58:34.477Z,8.04
2018-11-06T04:01:02.619Z,8.03
2018-11-06T04:03:30.769Z,8.08
2018-11-06T04:05:58.933Z,8.02
2018-11-06T04:08:27.104Z,8.01
2018-11-06T04:10:55.257Z,8.06
2018-11-06T04:13:23.394Z,7.98
2018-11-06T04:15:51.573Z,8.02
2018-11-06T04:18:19.709Z,8.03
2018-11-06T04:20:47.867Z,7.94
2018-11-06T04:23:16.090Z,7.96
2018-11-06T04:25:44.254Z,7.95
2018-11-06T04:28:12.376Z,7.94
2018-11-06T04:30:40.542Z,8.01
2018-11-06T04:33:08.716Z,7.94
2018-11-06T04:35:36.861Z,8.02
2018-11-06T04:38:05.102Z,8.11
2018-11-06T04:40:33.237Z,8.13
2018-11-06T04:43:01.388Z,8.10
2018-11-06T04:45:29.504Z,8.07
2018-11-06T04:47:57.657Z,8.18
2018-11-06T04:50:26.014Z,8.22
2018-11-06T04:52:54.180Z,8.19
2018-11-06T04:55:22.316Z,8.04
2018-11-06T04:57:50.517Z,7.96
2018-11-06T05:00:18.713Z,7.92
2018-11-06T05:02:46.823Z,7.96
2018-11-06T05:05:14.981Z,8.04
2018-11-06T05:07:43.138Z,8.12
2018-11-06T05:10:14.347Z,8.11
2018-11-06T05:12:42.497Z,8.12
2018-11-06T05:15:13.781Z,8.13
2018-11-06T05:17:42.031Z,7.90
2018-11-06T05:20:13.158Z,7.99
2018-11-06T05:22:41.374Z,8.04
2018-11-06T05:25:09.846Z,7.99
2018-11-06T05:27:38.377Z,7.88
2018-11-06T05:30:06.943Z,7.73
2018-11-06T05:32:35.123Z,7.77
2018-11-06T05:35:03.300Z,7.85
2018-11-06T05:37:31.445Z,7.92
2018-11-06T05:40:11.032Z,7.90
2018-11-06T05:42:39.161Z,7.74
2018-11-06T05:45:07.314Z,7.57
2018-11-06T05:47:35.466Z,7.51
2018-11-06T05:50:03.695Z,7.52
2018-11-06T05:52:31.926Z,7.48
2018-11-06T05:55:00.079Z,7.38
2018-11-06T05:57:28.241Z,7.42
2018-11-06T05:59:56.403Z,7.50
2018-11-06T06:02:24.560Z,7.53
2018-11-06T06:04:52.772Z,7.58
2018-11-06T06:07:20.937Z,7.35
2018-11-06T06:09:49.224Z,7.38
2018-11-06T06:12:17.338Z,7.27
2018-11-06T06:14:45.497Z,7.30
2018-11-06T06:17:13.745Z,7.17
2018-11-06T06:19:41.800Z,7.24
2018-11-06T06:22:09.970Z,7.14
2018-11-06T06:24:38.100Z,7.09
2018-11-06T06:27:06.227Z,7.17
2018-11-06T06:29:34.446Z,7.20
2018-11-06T06:32:02.604Z,7.11
2018-11-06T06:34:30.865Z,7.19
2018-11-06T06:36:58.979Z,7.32
2018-11-06T06:39:27.122Z,7.32
2018-11-06T06:41:55.278Z,7.35
2018-11-06T06:44:23.416Z,7.26
2018-11-06T06:46:51.587Z,7.28
2018-11-06T06:49:19.718Z,7.21
2018-11-06T06:51:47.832Z,7.24
2018-11-06T06:54:16.010Z,7.38
2018-11-06T06:56:44.106Z,7.38
2018-11-06T06:59:12.251Z,7.45
2018-11-06T07:01:40.373Z,7.41
2018-11-06T07:04:08.729Z,7.27
2018-11-06T07:06:36.890Z,7.36
2018-11-06T07:09:07.627Z,7.28
2018-11-06T07:11:35.963Z,7.31
2018-11-06T07:14:04.121Z,7.35
2018-11-06T07:16:32.240Z,7.35
2018-11-06T07:19:00.364Z,7.43
2018-11-06T07:21:28.527Z,7.51
2018-11-06T07:23:56.726Z,7.45
2018-11-06T07:26:24.844Z,7.50
2018-11-06T07:28:53.064Z,7.53
2018-11-06T07:31:21.186Z,7.44
2018-11-06T07:33:49.337Z,7.44
2018-11-06T07:36:17.469Z,7.53
2018-11-06T07:38:45.582Z,7.36
2018-11-06T07:41:13.788Z,7.42
2018-11-06T07:43:41.886Z,7.35
2018-11-06T07:46:10.020Z,7.53
2018-11-06T07:48:38.191Z,7.53
2018-11-06T07:51:06.370Z,7.56
2018-11-06T07:53:34.534Z,7.50
2018-11-06T07:56:02.698Z,7.59
2018-11-06T07:58:30.841Z,7.72
2018-11-06T08:00:58.981Z,7.70
2018-11-06T08:03:27.167Z,7.65
2018-11-06T08:05:55.310Z,7.52
2018-11-06T08:08:23.429Z,7.56
2018-11-06T08:10:51.585Z,7.69
2018-11-06T08:13:19.712Z,7.69
2018-11-06T08:15:47.910Z,7.69
2018-11-06T08:18:16.095Z,7.63
2018-11-06T08:20:44.315Z,7.57
2018-11-06T08:23:12.443Z,7.56
2018-11-06T08:25:40.604Z,7.64
2018-11-06T08:28:08.757Z,7.66
2018-11-06T08:30:36.933Z,7.61
2018-11-06T08:33:05.201Z,7.40
2018-11-06T08:35:33.365Z,7.46
2018-11-06T08:38:01.517Z,7.60
2018-11-06T08:40:29.637Z,7.72
2018-11-06T08:42:57.753Z,7.80
2018-11-06T08:45:25.925Z,7.91
2018-11-06T08:47:54.136Z,7.92
2018-11-06T08:50:22.248Z,7.87
2018-11-06T08:52:50.406Z,8.02
2018-11-06T08:55:18.547Z,8.13
2018-11-06T08:57:46.898Z,8.21
2018-11-06T09:00:17.330Z,8.21
2018-11-06T09:02:46.635Z,8.20
2018-11-06T09:05:15.743Z,8.09
2018-11-06T09:07:44.292Z,8.06
2018-11-06T09:10:13.532Z,8.27
2018-11-06T09:12:41.696Z,8.35
2018-11-06T09:15:11.744Z,8.38
2018-11-06T09:17:40.096Z,8.41
2018-11-06T09:20:09.610Z,8.50
2018-11-06T09:22:37.762Z,8.57
2018-11-06T09:25:07.188Z,8.47
2018-11-06T09:27:35.326Z,8.47
2018-11-06T09:30:03.469Z,8.39
2018-11-06T09:32:31.620Z,8.40
2018-11-06T09:34:59.803Z,8.42
2018-11-06T09:37:27.927Z,8.42
2018-11-06T09:39:56.048Z,8.56
2018-11-06T09:42:24.213Z,8.47
2018-11-06T09:44:52.390Z,8.62
2018-11-06T09:47:20.583Z,8.84
2018-11-06T09:49:48.688Z,9.01
2018-11-06T09:52:16.813Z,8.84
2018-11-06T09:54:44.950Z,8.98
2018-11-06T09:57:13.085Z,9.02
2018-11-06T09:59:41.279Z,9.12
2018-11-06T10:02:09.482Z,9.11
2018-11-06T10:04:37.650Z,9.07
2018-11-06T10:07:06.612Z,9.20
2018-11-06T10:09:34.546Z,9.27
2018-11-06T10:12:02.701Z,9.38
2018-11-06T10:14:30.845Z,9.46
2018-11-06T10:16:58.996Z,9.63
2018-11-06T10:19:27.136Z,9.65
2018-11-06T10:21:55.279Z,9.76
2018-11-06T10:24:23.419Z,9.87
2018-11-06T10:26:51.559Z,9.96
2018-11-06T10:29:19.719Z,9.92
2018-11-06T10:31:47.905Z,10.13
2018-11-06T10:34:16.070Z,10.30
2018-11-06T10:36:44.256Z,10.42
2018-11-06T10:39:13.723Z,10.52
2018-11-06T10:41:41.870Z,10.50
2018-11-06T10:44:10.069Z,10.71
2018-11-06T10:46:38.670Z,10.92
2018-11-06T10:49:07.665Z,11.03
2018-11-06T10:51:35.869Z,11.05
2018-11-06T10:54:03.993Z,11.13
2018-11-06T10:56:32.159Z,11.06
2018-11-06T10:59:00.324Z,11.19
2018-11-06T11:01:33.955Z,11.25
2018-11-06T11:04:07.452Z,11.15
2018-11-06T11:06:35.570Z,11.22
2018-11-06T11:09:04.342Z,11.33
2018-11-06T11:11:32.472Z,11.34
2018-11-06T11:14:00.629Z,11.36
2018-11-06T11:16:28.757Z,11.47
2018-11-06T11:18:56.933Z,11.50
2018-11-06T11:21:25.081Z,11.48
2018-11-06T11:23:53.201Z,11.54
2018-11-06T11:26:21.343Z,11.53
2018-11-06T11:28:49.470Z,11.72
2018-11-06T11:31:17.656Z,11.85
2018-11-06T11:33:45.802Z,11.94
2018-11-06T11:36:13.902Z,12.09
2018-11-06T11:38:42.031Z,12.03
2018-11-06T11:41:10.219Z,11.89
2018-11-06T11:43:39.600Z,12.10
2018-11-06T11:46:07.765Z,12.25
2018-11-06T11:48:35.914Z,12.36
2018-11-06T11:51:04.074Z,12.44
2018-11-06T11:53:32.190Z,12.49
2018-11-06T11:56:00.352Z,12.51
2018-11-06T11:58:28.501Z,12.52
2018-11-06T12:00:56.667Z,12.50
2018-11-06T12:03:24.845Z,12.51
2018-11-06T12:05:53.042Z,12.66
2018-11-06T12:08:21.184Z,12.72
2018-11-06T12:10:49.349Z,12.83
2018-11-06T12:13:17.484Z,12.70
2018-11-06T12:15:45.601Z,12.86
2018-11-06T12:18:13.793Z,12.91
2018-11-06T12:20:41.862Z,12.97
2018-11-06T12:23:10.009Z,13.03
2018-11-06T12:25:38.295Z,13.20
2018-11-06T12:28:06.365Z,13.39
2018-11-06T12:30:34.510Z,13.56
2018-11-06T12:33:02.641Z,13.62
2018-11-06T12:35:30.966Z,13.64
2018-11-06T12:37:59.123Z,13.68
2018-11-06T12:40:27.342Z,13.75
2018-11-06T12:42:55.505Z,13.77
2018-11-06T12:45:23.605Z,13.80
2018-11-06T12:47:51.760Z,13.83
2018-11-06T12:50:19.961Z,13.99
2018-11-06T12:52:48.031Z,14.03
2018-11-06T12:55:16.687Z,13.87
2018-11-06T12:57:45.056Z,13.97
2018-11-06T13:00:15.901Z,13.97
2018-11-06T13:02:44.064Z,13.93
2018-11-06T13:05:12.265Z,13.91
2018-11-06T13:07:41.462Z,13.85
2018-11-06T13:10:10.456Z,13.93
2018-11-06T13:12:39.055Z,14.02
2018-11-06T13:15:07.738Z,13.99
2018-11-06T13:17:36.466Z,14.09
2018-11-06T13:20:05.972Z,14.12
2018-11-06T13:22:34.118Z,14.00
2018-11-06T13:25:02.249Z,13.96
2018-11-06T13:27:30.405Z,13.85
2018-11-06T13:29:58.531Z,13.88
2018-11-06T13:32:26.793Z,13.99
2018-11-06T13:34:54.862Z,13.97
2018-11-06T13:37:23.005Z,14.04
2018-11-06T13:39:51.150Z,14.04
2018-11-06T13:42:19.311Z,13.90
2018-11-06T13:44:47.715Z,13.94
2018-11-06T13:47:15.596Z,13.97
2018-11-06T13:49:43.706Z,13.99
2018-11-06T13:52:11.902Z,13.99
2018-11-06T13:54:40.010Z,13.92
2018-11-06T13:57:08.430Z,13.92
2018-11-06T13:59:36.577Z,13.94
2018-11-06T14:02:05.031Z,13.86
2018-11-06T14:04:33.188Z,13.74
2018-11-06T14:07:01.374Z,13.83
2018-11-06T14:09:29.518Z,13.87
2018-11-06T14:11:57.654Z,13.87
2018-11-06T14:14:25.813Z,13.75
2018-11-06T14:16:53.962Z,13.67
2018-11-06T14:19:22.078Z,13.68
2018-11-06T14:21:50.215Z,13.70
2018-11-06T14:24:18.367Z,13.70
2018-11-06T14:26:46.534Z,13.66
2018-11-06T14:29:14.685Z,13.57
2018-11-06T14:31:42.817Z,13.55
2018-11-06T14:34:10.970Z,13.45
2018-11-06T14:36:39.138Z,13.42
2018-11-06T14:39:08.023Z,13.31
2018-11-06T14:41:36.182Z,13.17
2018-11-06T14:44:04.330Z,13.12
2018-11-06T14:46:32.457Z,13.04
2018-11-06T14:49:00.666Z,13.01
2018-11-06T14:51:28.755Z,12.98
2018-11-06T14:53:56.912Z,12.98
2018-11-06T14:56:25.037Z,12.93
2018-11-06T14:58:53.189Z,12.87
2018-11-06T15:01:21.382Z,12.87
2018-11-06T15:03:49.592Z,12.85
2018-11-06T15:06:17.786Z,12.76
2018-11-06T15:08:45.918Z,12.67
2018-11-06T15:11:14.070Z,12.69
2018-11-06T15:13:42.665Z,12.60
2018-11-06T15:16:10.794Z,12.59
2018-11-06T15:18:38.955Z,12.58
2018-11-06T15:21:07.066Z,12.50
2018-11-06T15:23:35.189Z,12.41
2018-11-06T15:26:03.324Z,12.40
2018-11-06T15:28:31.454Z,12.34
2018-11-06T15:30:59.578Z,12.32
2018-11-06T15:33:27.742Z,12.16
2018-11-06T15:35:55.880Z,11.92
2018-11-06T15:38:23.997Z,11.79
2018-11-06T15:40:52.209Z,11.78
2018-11-06T15:43:20.297Z,11.82
2018-11-06T15:45:48.434Z,11.80
2018-11-06T15:48:16.591Z,11.66
2018-11-06T15:50:44.854Z,11.40
2018-11-06T15:53:13.032Z,11.39
2018-11-06T15:55:41.170Z,11.31
2018-11-06T15:58:09.330Z,11.08
2018-11-06T16:00:37.539Z,10.93
2018-11-06T16:03:05.618Z,10.95
2018-11-06T16:05:33.821Z,11.01
2018-11-06T16:08:01.950Z,11.13
2018-11-06T16:10:30.124Z,11.23
2018-11-06T16:12:58.263Z,11.18
2018-11-06T16:15:26.465Z,11.18
2018-11-06T16:17:54.605Z,11.16
2018-11-06T16:20:22.796Z,11.18
2018-11-06T16:22:51.001Z,11.03
2018-11-06T16:25:19.805Z,10.94
2018-11-06T16:27:48.189Z,10.79
2018-11-06T16:30:18.618Z,10.72
2018-11-06T16:32:46.807Z,10.71
2018-11-06T16:35:16.205Z,10.79
2018-11-06T16:37:44.919Z,10.73
2018-11-06T16:40:13.679Z,10.78
2018-11-06T16:42:42.677Z,10.62
2018-11-06T16:45:13.629Z,10.73
2018-11-06T16:47:42.326Z,10.56
2018-11-06T16:50:11.725Z,10.37
2018-11-06T16:52:39.881Z,10.18
2018-11-06T16:55:08.620Z,10.09
2018-11-06T16:57:36.867Z,10.03
2018-11-06T17:00:06.134Z,10.08
2018-11-06T17:02:34.134Z,10.08
2018-11-06T17:05:02.262Z,10.14
2018-11-06T17:07:30.437Z,10.07
2018-11-06T17:09:58.582Z,10.11
2018-11-06T17:12:26.797Z,10.03
2018-11-06T17:14:54.934Z,10.00
2018-11-06T17:17:23.176Z,10.13
2018-11-06T17:19:51.261Z,10.18
2018-11-06T17:22:19.389Z,10.23
2018-11-06T17:24:47.536Z,10.30
2018-11-06T17:27:15.643Z,10.17
2018-11-06T17:29:43.921Z,9.99
2018-11-06T17:32:12.080Z,9.96
2018-11-06T17:34:40.290Z,9.90
2018-11-06T17:37:08.401Z,9.81
2018-11-06T17:39:36.648Z,9.77
2018-11-06T17:42:04.734Z,9.72
2018-11-06T17:44:32.860Z,9.71
2018-11-06T17:47:01.026Z,9.72
2018-11-06T17:49:29.132Z,9.69
2018-11-06T17:51:57.327Z,9.67
2018-11-06T17:54:25.421Z,9.67
2018-11-06T17:56:53.547Z,9.67
2018-11-06T17:59:21.722Z,9.66
2018-11-06T18:01:49.952Z,9.64
2018-11-06T18:04:18.273Z,9.59
2018-11-06T18:06:46.289Z,9.58
2018-11-06T18:09:14.425Z,9.49
2018-11-06T18:11:43.021Z,9.50
2018-11-06T18:14:11.182Z,9.55
2018-11-06T18:16:39.325Z,9.51
2018-11-06T18:19:07.491Z,9.39
2018-11-06T18:21:35.709Z,9.35
2018-11-06T18:24:03.957Z,9.27
2018-11-06T18:26:32.122Z,9.15
2018-11-06T18:29:00.244Z,9.09
2018-11-06T18:31:28.395Z,9.02
2018-11-06T18:33:57.213Z,8.95
2018-11-06T18:36:25.338Z,8.93
2018-11-06T18:38:53.489Z,8.91
2018-11-06T18:41:22.446Z,8.93
2018-11-06T18:43:50.602Z,8.92
2018-11-06T18:46:18.737Z,8.95
2018-11-06T18:48:46.967Z,8.98
2018-11-06T18:51:15.082Z,8.96
2018-11-06T18:53:43.206Z,8.99
2018-11-06T18:56:11.363Z,8.96
2018-11-06T18:58:39.532Z,8.96
2018-11-06T19:01:07.701Z,8.95
2018-11-06T19:03:35.917Z,8.94
2018-11-06T19:06:04.157Z,8.96
2018-11-06T19:08:32.437Z,8.97
2018-11-06T19:11:00.596Z,8.96
2018-11-06T19:13:28.738Z,8.92
2018-11-06T19:15:56.889Z,8.96
2018-11-06T19:18:25.027Z,9.02
2018-11-06T19:20:53.126Z,8.87
2018-11-06T19:23:21.262Z,8.71
2018-11-06T19:25:49.421Z,8.68
2018-11-06T19:28:17.537Z,8.63
2018-11-06T19:30:45.685Z,8.62
2018-11-06T19:33:13.903Z,8.69
2018-11-06T19:35:42.094Z,8.65
2018-11-06T19:38:10.265Z,8.72
2018-11-06T19:40:38.525Z,8.69
2018-11-06T19:43:06.588Z,8.62
2018-11-06T19:45:34.717Z,8.66
2018-11-06T19:48:02.933Z,8.72
2018-11-06T19:50:31.067Z,8.75
2018-11-06T19:52:59.242Z,8.81
2018-11-06T19:55:27.405Z,8.84
2018-11-06T19:57:56.011Z,8.75
2018-11-06T20:00:24.271Z,8.76
2018-11-06T20:02:53.479Z,8.72
2018-11-06T20:05:21.855Z,8.65
2018-11-06T20:07:51.030Z,8.57
2018-11-06T20:10:20.756Z,8.40
2018-11-06T20:12:50.141Z,8.26
2018-11-06T20:15:18.505Z,8.10
2018-11-06T20:17:47.119Z,7.94
2018-11-06T20:20:16.761Z,7.90
2018-11-06T20:22:45.498Z,7.92
2018-11-06T20:25:13.877Z,7.93
2018-11-06T20:27:42.364Z,8.00
2018-11-06T20:30:13.729Z,8.04
2018-11-06T20:32:42.209Z,8.04
2018-11-06T20:35:11.441Z,8.05
2018-11-06T20:37:39.634Z,8.13
2018-11-06T20:40:11.055Z,8.10
2018-11-06T20:42:39.603Z,8.16
2018-11-06T20:45:08.938Z,8.21
2018-11-06T20:47:37.173Z,8.22
2018-11-06T20:50:10.378Z,8.15
2018-11-06T20:52:38.586Z,8.12
2018-11-06T20:55:07.434Z,8.15
2018-11-06T20:57:35.993Z,8.16
2018-11-06T21:00:04.479Z,8.18
2018-11-06T21:02:32.534Z,8.18
2018-11-06T21:05:00.749Z,8.21
2018-11-06T21:07:29.130Z,8.23
2018-11-06T21:09:57.508Z,8.23
2018-11-06T21:12:25.868Z,8.36
2018-11-06T21:14:54.095Z,8.36
2018-11-06T21:17:22.315Z,8.35
2018-11-06T21:19:50.706Z,8.38
2018-11-06T21:22:18.802Z,8.36
2018-11-06T21:24:47.028Z,8.29
2018-11-06T21:27:15.274Z,8.25
2018-11-06T21:29:43.381Z,8.19
2018-11-06T21:32:11.589Z,8.21
2018-11-06T21:34:39.721Z,8.21
2018-11-06T21:37:07.845Z,8.14
2018-11-06T21:39:35.989Z,8.22
2018-11-06T21:42:04.141Z,8.25
2018-11-06T21:44:33.048Z,8.29
2018-11-06T21:47:01.229Z,8.25
2018-11-06T21:49:29.353Z,8.08
2018-11-06T21:51:57.500Z,7.96
2018-11-06T21:54:25.680Z,7.95
2018-11-06T21:56:53.805Z,8.06
2018-11-06T21:59:21.986Z,8.08
2018-11-06T22:01:50.193Z,8.15
2018-11-06T22:04:18.370Z,8.17
2018-11-06T22:06:46.547Z,8.18
2018-11-06T22:09:14.705Z,8.37
2018-11-06T22:11:42.832Z,8.42
2018-11-06T22:14:10.984Z,8.40
2018-11-06T22:16:39.113Z,8.31
2018-11-06T22:19:07.281Z,8.28
2018-11-06T22:21:35.493Z,8.28
2018-11-06T22:24:03.609Z,8.30
2018-11-06T22:26:31.758Z,8.31
2018-11-06T22:28:59.914Z,8.41
2018-11-06T22:31:28.126Z,8.40
2018-11-06T22:33:56.234Z,8.39
2018-11-06T22:36:24.370Z,8.33
2018-11-06T22:38:52.498Z,8.35
2018-11-06T22:41:20.744Z,8.36
2018-11-06T22:43:49.342Z,8.25
2018-11-06T22:46:17.513Z,8.09
2018-11-06T22:48:45.664Z,8.05
2018-11-06T22:51:13.834Z,8.00
2018-11-06T22:53:42.201Z,7.97
2018-11-06T22:56:10.345Z,7.98
2018-11-06T22:58:38.551Z,8.15
2018-11-06T23:01:12.151Z,7.93
2018-11-06T23:03:40.873Z,7.74
2018-11-06T23:06:09.258Z,7.70
2018-11-06T23:08:37.253Z,7.80
2018-11-06T23:11:05.612Z,7.91
2018-11-06T23:13:33.818Z,7.90
2018-11-06T23:16:01.949Z,7.91
2018-11-06T23:18:30.077Z,7.99
2018-11-06T23:20:58.257Z,7.94
2018-11-06T23:23:26.385Z,7.94
2018-11-06T23:25:54.542Z,8.01
2018-11-06T23:28:22.718Z,8.15
2018-11-06T23:30:50.872Z,8.24
2018-11-06T23:33:19.006Z,8.33
2018-11-06T23:35:47.162Z,8.32
2018-11-06T23:38:15.330Z,8.26
2018-11-06T23:40:43.502Z,8.51
2018-11-06T23:43:11.649Z,8.45
2018-11-06T23:45:39.788Z,8.58
2018-11-06T23:48:07.928Z,8.76
2018-11-06T23:50:36.077Z,8.61
2018-11-06T23:53:04.581Z,8.45
2018-11-06T23:55:32.685Z,8.35
2018-11-06T23:58:01.620Z,8.28
